Time;durP1;ratioP1;P1;durP2;ratioP2;P2;SDS_P1;SDS_P2;PMS_P1;PMS_P2;Temp;Humidity;BMP_temperature;BMP_pressure;BME280_temperature;BME280_humidity;BME280_pressure;Samples;Min_cycle;Max_cycle;Signal;HPM_P1;HPM_P2
2021/03/05 00:00:16;;;;;;;9.57;6.10;;;;;;;;;;5068793;28;20045;-78
2021/03/05 00:02:41;;;;;;;9.90;5.85;;;;;;;;;;5061022;28;20036;-78
2021/03/05 00:05:07;;;;;;;8.95;5.85;;;;;;;;;;5056332;28;20099;-77
2021/03/05 00:07:32;;;;;;;10.32;5.93;;;;;;;;;;5056979;28;20032;-77
2021/03/05 00:09:57;;;;;;;8.85;5.90;;;;;;;;;;5057312;28;20104;-76
2021/03/05 00:12:23;;;;;;;11.00;6.57;;;;;;;;;;5039194;28;20486;-79
2021/03/05 00:14:48;;;;;;;9.02;5.93;;;;;;;;;;5034896;28;20648;-77
2021/03/05 00:17:13;;;;;;;10.70;6.43;;;;;;;;;;5033534;28;20061;-78
2021/03/05 00:19:39;;;;;;;10.20;6.00;;;;;;;;;;5033004;28;20124;-78
2021/03/05 00:22:05;;;;;;;9.57;6.03;;;;;;;;;;5032606;28;20281;-77
2021/03/05 00:24:30;;;;;;;9.73;6.70;;;;;;;;;;5033474;28;20352;-78
2021/03/05 00:26:55;;;;;;;8.80;5.93;;;;;;;;;;5032551;28;20694;-77
2021/03/05 00:29:20;;;;;;;8.90;6.17;;;;;;;;;;5047722;28;20259;-77
2021/03/05 00:31:46;;;;;;;9.18;6.35;;;;;;;;;;5032504;28;20264;-76
2021/03/05 00:34:11;;;;;;;10.13;5.77;;;;;;;;;;5032582;28;20104;-77
2021/03/05 00:36:36;;;;;;;8.90;6.10;;;;;;;;;;5033073;28;20261;-77
2021/03/05 00:39:02;;;;;;;9.35;6.22;;;;;;;;;;5032613;28;20661;-76
2021/03/05 00:41:27;;;;;;;9.75;6.05;;;;;;;;;;5042629;28;20441;-76
2021/03/05 00:43:52;;;;;;;10.10;6.10;;;;;;;;;;5051954;28;20116;-78
2021/03/05 00:46:17;;;;;;;10.13;6.32;;;;;;;;;;5050041;28;20260;-77
2021/03/05 00:48:43;;;;;;;9.17;6.10;;;;;;;;;;5051425;28;20565;-77
2021/03/05 00:51:08;;;;;;;9.65;6.53;;;;;;;;;;5051093;28;20254;-77
2021/03/05 00:53:33;;;;;;;9.75;6.28;;;;;;;;;;5051880;28;20098;-79
2021/03/05 00:55:59;;;;;;;10.17;6.13;;;;;;;;;;5052161;28;20013;-79
2021/03/05 00:58:24;;;;;;;11.13;6.60;;;;;;;;;;5051948;28;20267;-79
2021/03/05 01:00:49;;;;;;;9.82;6.07;;;;;;;;;;5052109;28;20881;-78
2021/03/05 01:03:14;;;;;;;9.00;6.47;;;;;;;;;;5052124;28;20024;-75
2021/03/05 01:05:40;;;;;;;8.87;6.27;;;;;;;;;;5052111;28;20629;-78
2021/03/05 01:08:05;;;;;;;9.48;6.53;;;;;;;;;;5051363;28;20306;-77
2021/03/05 01:10:30;;;;;;;10.02;6.55;;;;;;;;;;5051877;28;20025;-78
2021/03/05 01:12:56;;;;;;;9.57;6.43;;;;;;;;;;5051175;28;20086;-77
2021/03/05 01:15:21;;;;;;;11.95;6.85;;;;;;;;;;5050998;28;20317;-76
2021/03/05 01:17:47;;;;;;;8.80;6.30;;;;;;;;;;5050202;28;20024;-77
2021/03/05 01:20:13;;;;;;;9.55;5.97;;;;;;;;;;5031298;28;20032;-79
2021/03/05 01:22:38;;;;;;;11.45;6.95;;;;;;;;;;5031118;28;20084;-77
2021/03/05 01:25:05;;;;;;;10.27;6.80;;;;;;;;;;5031145;28;20455;-77
2021/03/05 01:27:31;;;;;;;9.50;6.53;;;;;;;;;;5031653;28;20084;-77
2021/03/05 01:29:56;;;;;;;9.77;6.20;;;;;;;;;;5046959;28;20018;-78
2021/03/05 01:32:21;;;;;;;10.85;6.70;;;;;;;;;;5030824;28;20456;-78
2021/03/05 01:34:47;;;;;;;10.40;7.10;;;;;;;;;;5044877;28;20075;-78
2021/03/05 01:37:12;;;;;;;9.95;6.65;;;;;;;;;;5051224;28;20029;-79
2021/03/05 01:39:37;;;;;;;8.57;6.20;;;;;;;;;;5051249;28;20057;-78
2021/03/05 01:42:02;;;;;;;9.65;6.18;;;;;;;;;;5050739;28;20112;-77
2021/03/05 01:44:28;;;;;;;11.88;7.20;;;;;;;;;;5050147;28;20025;-80
2021/03/05 01:46:53;;;;;;;9.93;6.87;;;;;;;;;;5049514;28;20017;-77
2021/03/05 01:49:18;;;;;;;8.98;5.78;;;;;;;;;;5049843;28;20255;-79
2021/03/05 01:51:44;;;;;;;9.88;6.10;;;;;;;;;;5049488;28;20108;-79
2021/03/05 01:54:09;;;;;;;9.97;6.60;;;;;;;;;;5050758;28;20117;-78
2021/03/05 01:56:38;;;;;;;10.55;6.93;;;;;;;;;;5050611;28;20263;-79
2021/03/05 01:59:04;;;;;;;11.00;7.03;;;;;;;;;;5049991;28;20029;-79
2021/03/05 02:01:29;;;;;;;9.07;6.63;;;;;;;;;;5050779;28;20037;-79
2021/03/05 02:03:54;;;;;;;10.95;6.18;;;;;;;;;;5049129;28;20409;-78
2021/03/05 02:06:20;;;;;;;11.25;6.70;;;;;;;;;;5049281;28;20024;-78
2021/03/05 02:08:45;;;;;;;9.00;6.50;;;;;;;;;;5049906;28;20427;-78
2021/03/05 02:11:11;;;;;;;11.10;7.13;;;;;;;;;;5050504;28;20119;-78
2021/03/05 02:13:36;;;;;;;10.27;6.93;;;;;;;;;;5050271;28;20271;-78
2021/03/05 02:16:01;;;;;;;11.47;6.47;;;;;;;;;;5049943;28;20009;-77
2021/03/05 02:18:31;;;;;;;9.27;6.57;;;;;;;;;;5049544;28;20263;-76
2021/03/05 02:21:05;;;;;;;10.00;6.47;;;;;;;;;;5048485;28;20481;-76
2021/03/05 02:23:31;;;;;;;10.57;6.05;;;;;;;;;;5049489;28;20039;-77
2021/03/05 02:26:16;;;;;;;8.80;5.88;;;;;;;;;;5049650;28;20096;-77
2021/03/05 02:28:57;;;;;;;9.10;6.25;;;;;;;;;;5049130;28;20526;-77
2021/03/05 02:31:42;;;;;;;9.55;6.72;;;;;;;;;;5049558;28;20563;-76
2021/03/05 02:34:12;;;;;;;10.02;6.72;;;;;;;;;;5049843;28;20040;-77
2021/03/05 02:36:39;;;;;;;10.98;6.70;;;;;;;;;;5049937;28;20021;-77
2021/03/05 02:39:06;;;;;;;9.40;6.30;;;;;;;;;;5046977;28;20436;-76
2021/03/05 02:41:32;;;;;;;10.05;6.75;;;;;;;;;;5048321;28;20528;-78
2021/03/05 02:43:57;;;;;;;10.90;6.45;;;;;;;;;;5049166;28;20025;-78
2021/03/05 02:46:22;;;;;;;11.32;6.90;;;;;;;;;;5049100;28;20037;-77
2021/03/05 02:48:48;;;;;;;9.40;6.43;;;;;;;;;;5047686;28;20025;-77
2021/03/05 02:51:13;;;;;;;9.37;6.07;;;;;;;;;;5049590;28;20044;-76
2021/03/05 02:53:38;;;;;;;10.38;6.38;;;;;;;;;;5049972;28;20256;-77
2021/03/05 02:56:05;;;;;;;10.05;6.43;;;;;;;;;;5044529;28;20026;-77
2021/03/05 02:58:30;;;;;;;9.77;7.00;;;;;;;;;;5045329;28;20092;-77
2021/03/05 03:00:55;;;;;;;11.43;7.07;;;;;;;;;;5044796;28;20524;-78
2021/03/05 03:03:20;;;;;;;11.45;6.85;;;;;;;;;;5030096;28;20272;-77
2021/03/05 03:05:46;;;;;;;10.35;6.60;;;;;;;;;;5029440;28;20613;-77
2021/03/05 03:08:12;;;;;;;9.70;6.43;;;;;;;;;;5044577;28;20024;-77
2021/03/05 03:10:37;;;;;;;10.05;6.25;;;;;;;;;;5028863;28;20124;-77
2021/03/05 03:13:02;;;;;;;10.63;6.20;;;;;;;;;;5028890;28;20496;-76
2021/03/05 03:15:29;;;;;;;10.27;6.97;;;;;;;;;;5044481;28;20033;-77
2021/03/05 03:30:07;;;;;;;10.60;6.57;;;;;;;;;;5051647;28;20028;-77
2021/03/05 03:32:33;;;;;;;9.93;6.30;;;;;;;;;;5053222;28;20033;-77
2021/03/05 03:34:59;;;;;;;10.82;6.55;;;;;;;;;;5053288;28;20051;-77
2021/03/05 03:37:24;;;;;;;10.80;6.43;;;;;;;;;;5052122;28;20507;-78
2021/03/05 03:39:50;;;;;;;11.25;6.72;;;;;;;;;;5048844;28;20649;-77
2021/03/05 03:42:15;;;;;;;9.32;6.28;;;;;;;;;;5057038;28;20029;-77
2021/03/05 03:44:40;;;;;;;9.43;6.65;;;;;;;;;;5053211;28;20021;-77
2021/03/05 03:47:06;;;;;;;9.25;6.57;;;;;;;;;;5053079;28;20071;-78
2021/03/05 03:49:44;;;;;;;10.00;6.55;;;;;;;;;;5068519;28;20056;-78
2021/03/05 03:52:11;;;;;;;9.93;6.40;;;;;;;;;;5053540;28;20025;-78
2021/03/05 03:54:36;;;;;;;9.68;6.07;;;;;;;;;;5067882;28;20024;-78
2021/03/05 03:57:02;;;;;;;12.25;6.53;;;;;;;;;;5068414;28;20017;-78
2021/03/05 03:59:27;;;;;;;10.68;6.53;;;;;;;;;;5053462;28;20078;-79
2021/03/05 04:01:54;;;;;;;9.13;6.10;;;;;;;;;;5052929;28;20079;-79
2021/03/05 04:04:19;;;;;;;9.25;6.60;;;;;;;;;;5053050;28;20351;-78
2021/03/05 04:06:44;;;;;;;10.13;6.10;;;;;;;;;;5051829;28;20104;-77
2021/03/05 04:09:09;;;;;;;9.45;5.88;;;;;;;;;;5051693;28;20259;-78
2021/03/05 04:11:35;;;;;;;8.17;6.20;;;;;;;;;;5050877;28;20063;-78
2021/03/05 04:14:00;;;;;;;10.10;6.47;;;;;;;;;;5052575;28;20320;-76
2021/03/05 04:16:25;;;;;;;9.10;6.00;;;;;;;;;;5053036;28;20026;-78
2021/03/05 04:18:51;;;;;;;10.40;6.13;;;;;;;;;;5051035;28;20881;-78
2021/03/05 04:21:17;;;;;;;9.63;5.88;;;;;;;;;;5051439;28;20671;-77
2021/03/05 04:23:42;;;;;;;8.50;5.80;;;;;;;;;;5049994;28;20098;-79
2021/03/05 04:26:08;;;;;;;8.95;5.72;;;;;;;;;;5051872;28;20071;-79
2021/03/05 04:28:33;;;;;;;10.15;6.18;;;;;;;;;;5050742;28;20558;-78
2021/03/05 04:30:58;;;;;;;10.07;6.18;;;;;;;;;;5050739;28;20028;-79
2021/03/05 04:33:25;;;;;;;8.77;6.03;;;;;;;;;;5052064;28;20474;-78
2021/03/05 04:35:51;;;;;;;9.52;5.70;;;;;;;;;;5041723;28;20037;-78
2021/03/05 04:38:16;;;;;;;10.13;5.97;;;;;;;;;;5041687;28;20034;-81
2021/03/05 04:40:42;;;;;;;8.45;5.88;;;;;;;;;;5063367;28;20031;-78
2021/03/05 04:43:07;;;;;;;9.88;6.07;;;;;;;;;;5050154;28;20024;-84
2021/03/05 04:45:32;;;;;;;9.33;6.23;;;;;;;;;;5050419;28;20478;-81
2021/03/05 04:47:57;;;;;;;8.67;6.00;;;;;;;;;;5053671;28;20252;-80
2021/03/05 04:50:23;;;;;;;8.45;5.47;;;;;;;;;;5050976;28;20271;-78
2021/03/05 04:52:48;;;;;;;9.25;5.80;;;;;;;;;;5051979;28;20041;-80
2021/03/05 04:55:13;;;;;;;10.00;5.85;;;;;;;;;;5048992;28;20558;-80
2021/03/05 04:57:38;;;;;;;8.98;5.53;;;;;;;;;;5045731;28;20032;-79
2021/03/05 05:00:04;;;;;;;10.97;6.67;;;;;;;;;;5049722;28;20033;-77
2021/03/05 05:02:29;;;;;;;8.80;6.00;;;;;;;;;;5033666;28;20277;-81
2021/03/05 05:04:55;;;;;;;10.52;6.10;;;;;;;;;;5048383;28;20025;-80
2021/03/05 05:07:20;;;;;;;8.00;5.33;;;;;;;;;;5051246;28;20013;-78
2021/03/05 05:09:45;;;;;;;9.40;5.83;;;;;;;;;;5064215;28;20365;-76
2021/03/05 05:12:10;;;;;;;8.48;5.45;;;;;;;;;;5038278;28;20263;-77
2021/03/05 05:14:36;;;;;;;9.43;5.72;;;;;;;;;;5046895;28;20032;-76
2021/03/05 05:17:02;;;;;;;9.95;6.35;;;;;;;;;;5062227;28;20102;-78
2021/03/05 05:19:27;;;;;;;8.90;5.45;;;;;;;;;;5048446;28;20032;-76
2021/03/05 05:21:52;;;;;;;10.40;6.03;;;;;;;;;;5038031;28;20025;-76
2021/03/05 05:24:18;;;;;;;9.23;5.87;;;;;;;;;;5048293;28;20268;-77
2021/03/05 05:26:43;;;;;;;8.65;5.65;;;;;;;;;;5044657;28;20256;-77
2021/03/05 05:29:08;;;;;;;10.93;5.87;;;;;;;;;;5048580;28;20096;-75
2021/03/05 05:31:33;;;;;;;8.07;5.23;;;;;;;;;;5042646;28;20268;-82
2021/03/05 05:33:59;;;;;;;9.05;5.68;;;;;;;;;;5055160;28;20244;-84
2021/03/05 05:36:24;;;;;;;11.00;6.22;;;;;;;;;;5066754;28;20032;-79
2021/03/05 05:38:49;;;;;;;9.80;5.93;;;;;;;;;;5054358;28;20509;-81
2021/03/05 05:41:15;;;;;;;8.32;5.70;;;;;;;;;;5062876;28;20271;-79
2021/03/05 05:43:40;;;;;;;8.18;5.40;;;;;;;;;;5071721;28;20021;-79
2021/03/05 05:46:08;;;;;;;8.77;5.63;;;;;;;;;;5048066;28;20028;-78
2021/03/05 05:48:37;;;;;;;8.85;5.55;;;;;;;;;;5051901;28;20338;-80
2021/03/05 05:51:03;;;;;;;9.18;6.10;;;;;;;;;;5049190;28;20025;-77
2021/03/05 05:53:30;;;;;;;8.48;5.65;;;;;;;;;;5050669;28;20516;-87
2021/03/05 05:55:56;;;;;;;9.35;6.15;;;;;;;;;;5052223;28;20027;-81
2021/03/05 05:58:21;;;;;;;8.27;5.55;;;;;;;;;;5050636;28;20020;-84
2021/03/05 06:00:46;;;;;;;8.50;5.57;;;;;;;;;;5052217;28;20537;-79
2021/03/05 06:03:12;;;;;;;7.15;5.22;;;;;;;;;;5052573;28;20024;-82
2021/03/05 06:05:37;;;;;;;9.35;5.50;;;;;;;;;;5050444;28;20066;-79
2021/03/05 06:08:02;;;;;;;9.63;5.43;;;;;;;;;;5047163;28;20073;-79
2021/03/05 06:10:27;;;;;;;9.32;5.63;;;;;;;;;;5047179;28;20283;-88
2021/03/05 06:12:53;;;;;;;9.30;5.30;;;;;;;;;;5059535;28;20028;-89
2021/03/05 06:15:18;;;;;;;9.13;5.73;;;;;;;;;;5048358;28;20299;-84
2021/03/05 06:17:44;;;;;;;8.80;5.70;;;;;;;;;;5058900;28;20780;-84
2021/03/05 06:20:10;;;;;;;8.85;5.75;;;;;;;;;;5047551;28;20032;-78
2021/03/05 06:22:35;;;;;;;7.75;5.50;;;;;;;;;;5049436;28;20029;-82
2021/03/05 06:25:00;;;;;;;7.13;5.20;;;;;;;;;;5046490;28;20035;-75
2021/03/05 06:27:29;;;;;;;8.30;5.67;;;;;;;;;;5040614;28;20427;-72
2021/03/05 06:29:54;;;;;;;9.18;5.55;;;;;;;;;;5043174;28;20287;-74
2021/03/05 06:32:20;;;;;;;7.07;4.93;;;;;;;;;;5045297;28;20494;-75
2021/03/05 06:34:46;;;;;;;8.40;5.63;;;;;;;;;;5046452;28;20025;-76
2021/03/05 06:37:11;;;;;;;9.60;5.80;;;;;;;;;;5041998;28;20370;-75
2021/03/05 06:39:36;;;;;;;9.23;5.25;;;;;;;;;;5046301;28;20116;-77
2021/03/05 06:42:05;;;;;;;10.23;5.30;;;;;;;;;;5042467;28;20037;-83
2021/03/05 06:44:30;;;;;;;8.63;5.30;;;;;;;;;;5049289;28;20873;-80
2021/03/05 06:46:55;;;;;;;7.88;5.25;;;;;;;;;;5050450;28;20028;-77
2021/03/05 06:49:24;;;;;;;8.90;5.35;;;;;;;;;;5048860;28;20021;-80
2021/03/05 06:51:53;;;;;;;6.72;4.88;;;;;;;;;;5048912;28;20500;-78
2021/03/05 06:54:18;;;;;;;26.93;7.33;;;;;;;;;;5048864;28;20430;-79
2021/03/05 06:56:47;;;;;;;8.00;5.03;;;;;;;;;;5049198;28;20051;-79
2021/03/05 06:59:13;;;;;;;8.43;5.60;;;;;;;;;;5047779;28;20033;-81
2021/03/05 07:01:51;;;;;;;7.75;5.20;;;;;;;;;;5051549;28;20063;-83
2021/03/05 07:04:17;;;;;;;8.10;5.68;;;;;;;;;;5049048;28;20021;-74
2021/03/05 07:06:42;;;;;;;7.68;5.20;;;;;;;;;;5047622;28;20017;-79
2021/03/05 07:09:08;;;;;;;7.22;5.05;;;;;;;;;;5049913;28;20029;-74
2021/03/05 07:11:35;;;;;;;8.20;4.93;;;;;;;;;;5047648;28;20025;-75
2021/03/05 07:14:00;;;;;;;8.57;5.53;;;;;;;;;;5050260;28;20021;-76
2021/03/05 07:16:25;;;;;;;7.40;5.15;;;;;;;;;;5049537;28;20031;-78
2021/03/05 07:18:51;;;;;;;8.55;5.38;;;;;;;;;;5045373;28;20017;-77
2021/03/05 07:21:19;;;;;;;7.93;5.90;;;;;;;;;;5037985;28;20017;-74
2021/03/05 07:23:45;;;;;;;8.43;5.22;;;;;;;;;;5052383;28;20021;-79
2021/03/05 07:26:10;;;;;;;12.18;5.80;;;;;;;;;;5054297;28;20501;-74
2021/03/05 07:28:35;;;;;;;8.23;5.43;;;;;;;;;;5048826;28;20486;-76
2021/03/05 07:31:01;;;;;;;10.98;6.43;;;;;;;;;;5043205;28;20071;-74
2021/03/05 07:33:27;;;;;;;10.52;6.10;;;;;;;;;;5046469;28;20498;-73
2021/03/05 07:35:52;;;;;;;13.40;8.07;;;;;;;;;;5069010;28;20048;-75
2021/03/05 07:38:18;;;;;;;11.13;7.10;;;;;;;;;;5052389;28;20535;-76
2021/03/05 07:40:43;;;;;;;10.98;7.60;;;;;;;;;;5039449;28;20272;-75
2021/03/05 07:43:08;;;;;;;11.50;8.05;;;;;;;;;;5049243;28;20421;-77
2021/03/05 07:45:34;;;;;;;13.10;8.30;;;;;;;;;;5068564;28;20028;-79
2021/03/05 07:48:00;;;;;;;14.03;8.47;;;;;;;;;;5058239;28;20271;-76
2021/03/05 07:50:25;;;;;;;11.43;7.95;;;;;;;;;;5045457;28;20278;-80
2021/03/05 07:52:51;;;;;;;15.82;8.60;;;;;;;;;;5048971;28;20021;-78
2021/03/05 07:55:16;;;;;;;12.60;8.27;;;;;;;;;;5047069;28;20017;-79
2021/03/05 07:57:46;;;;;;;14.40;8.77;;;;;;;;;;5060210;28;20485;-77
2021/03/05 08:00:12;;;;;;;16.20;7.65;;;;;;;;;;5043380;28;20047;-75
2021/03/05 08:02:56;;;;;;;16.00;8.00;;;;;;;;;;5046289;28;20115;-76
2021/03/05 08:05:31;;;;;;;12.50;8.50;;;;;;;;;;5047344;28;20017;-76
2021/03/05 08:08:06;;;;;;;13.77;7.80;;;;;;;;;;5047651;28;20025;-75
2021/03/05 08:10:35;;;;;;;11.20;7.90;;;;;;;;;;5046108;28;20083;-80
2021/03/05 08:13:01;;;;;;;12.37;7.37;;;;;;;;;;5056301;28;20031;-77
2021/03/05 08:15:26;;;;;;;11.95;7.15;;;;;;;;;;5045031;28;20096;-75
2021/03/05 08:17:52;;;;;;;11.68;6.95;;;;;;;;;;5051447;28;20551;-78
2021/03/05 08:20:17;;;;;;;12.20;7.97;;;;;;;;;;5044149;28;20649;-76
2021/03/05 08:22:58;;;;;;;11.63;7.93;;;;;;;;;;5051664;28;20036;-81
2021/03/05 08:25:24;;;;;;;11.70;6.82;;;;;;;;;;5053191;28;20347;-77
2021/03/05 08:27:49;;;;;;;10.40;7.43;;;;;;;;;;5052078;28;20045;-77
2021/03/05 08:30:19;;;;;;;11.43;6.93;;;;;;;;;;5046871;28;20021;-77
2021/03/05 08:32:48;;;;;;;11.98;6.85;;;;;;;;;;5050059;28;20729;-77
2021/03/05 08:35:42;;;;;;;9.80;6.53;;;;;;;;;;5050535;28;20025;-77
2021/03/05 08:38:15;;;;;;;11.05;6.97;;;;;;;;;;5038061;28;20124;-74
2021/03/05 08:40:43;;;;;;;10.05;6.35;;;;;;;;;;5049074;28;20016;-76
2021/03/05 08:43:09;;;;;;;10.30;6.68;;;;;;;;;;5051220;28;20053;-77
2021/03/05 08:45:34;;;;;;;10.33;6.37;;;;;;;;;;5041600;28;20037;-74
2021/03/05 08:48:00;;;;;;;10.27;6.60;;;;;;;;;;5066644;28;20734;-75
2021/03/05 08:50:35;;;;;;;9.77;6.68;;;;;;;;;;5048903;28;20025;-79
2021/03/05 08:53:03;;;;;;;10.48;6.72;;;;;;;;;;5052821;28;20026;-79
2021/03/05 08:55:29;;;;;;;8.73;6.10;;;;;;;;;;5048726;28;20033;-79
2021/03/05 08:57:54;;;;;;;8.88;5.80;;;;;;;;;;5053321;28;20032;-80
2021/03/05 09:00:20;;;;;;;11.10;6.23;;;;;;;;;;5053300;28;20048;-79
2021/03/05 09:02:46;;;;;;;9.45;5.78;;;;;;;;;;5054097;28;20310;-81
2021/03/05 09:05:13;;;;;;;8.68;5.97;;;;;;;;;;5047394;28;20021;-79
2021/03/05 09:07:51;;;;;;;10.93;6.20;;;;;;;;;;5053454;28;20027;-79
2021/03/05 09:10:16;;;;;;;8.88;5.88;;;;;;;;;;5064276;28;20017;-79
2021/03/05 09:12:58;;;;;;;9.90;5.78;;;;;;;;;;5058516;28;20508;-78
2021/03/05 09:15:27;;;;;;;9.57;5.53;;;;;;;;;;5053083;28;20023;-79
2021/03/05 09:17:53;;;;;;;8.35;5.22;;;;;;;;;;5055899;28;20021;-79
2021/03/05 09:20:19;;;;;;;9.63;5.90;;;;;;;;;;5052305;28;20037;-79
2021/03/05 09:22:44;;;;;;;7.85;5.25;;;;;;;;;;5053726;28;20195;-80
2021/03/05 09:25:10;;;;;;;7.63;5.45;;;;;;;;;;5051661;28;20055;-79
2021/03/05 09:27:39;;;;;;;9.40;6.18;;;;;;;;;;5056330;28;20023;-80
2021/03/05 09:30:14;;;;;;;9.25;6.00;;;;;;;;;;5056221;28;20025;-80
2021/03/05 09:32:46;;;;;;;10.48;5.80;;;;;;;;;;5056609;28;20032;-78
2021/03/05 09:35:11;;;;;;;7.95;5.85;;;;;;;;;;5051747;28;20410;-79
2021/03/05 09:37:37;;;;;;;8.07;5.30;;;;;;;;;;5056340;28;20033;-80
2021/03/05 09:40:02;;;;;;;9.55;5.68;;;;;;;;;;5045449;28;20033;-81
2021/03/05 09:42:46;;;;;;;9.88;5.20;;;;;;;;;;5060473;28;20115;-82
2021/03/05 09:45:12;;;;;;;7.75;5.05;;;;;;;;;;5065255;28;20013;-80
2021/03/05 09:47:50;;;;;;;10.30;5.32;;;;;;;;;;5070793;28;20017;-79
2021/03/05 09:50:22;;;;;;;9.00;5.05;;;;;;;;;;5060060;28;20020;-78
2021/03/05 09:52:47;;;;;;;8.63;5.40;;;;;;;;;;5060789;28;20037;-78
2021/03/05 09:55:42;;;;;;;8.20;5.15;;;;;;;;;;5063672;28;20020;-83
2021/03/05 09:58:10;;;;;;;7.22;5.03;;;;;;;;;;5056821;28;20111;-79
2021/03/05 10:00:36;;;;;;;9.52;5.45;;;;;;;;;;5062193;28;20083;-73
2021/03/05 10:03:02;;;;;;;9.35;5.13;;;;;;;;;;5058964;28;20021;-74
2021/03/05 10:05:27;;;;;;;8.40;5.38;;;;;;;;;;5061221;28;20017;-74
2021/03/05 10:07:53;;;;;;;8.35;5.13;;;;;;;;;;5055079;28;20028;-74
2021/03/05 10:10:18;;;;;;;7.83;5.33;;;;;;;;;;5050861;28;20027;-77
2021/03/05 10:12:50;;;;;;;8.88;5.15;;;;;;;;;;5051698;28;20263;-78
2021/03/05 10:15:15;;;;;;;7.88;4.95;;;;;;;;;;5050010;28;20025;-80
2021/03/05 10:17:40;;;;;;;7.68;4.57;;;;;;;;;;5057982;28;20092;-84
2021/03/05 10:20:06;;;;;;;7.95;5.40;;;;;;;;;;5058312;28;20890;-76
2021/03/05 10:22:32;;;;;;;8.98;4.55;;;;;;;;;;5067337;28;20025;-83
2021/03/05 10:24:57;;;;;;;9.60;5.72;;;;;;;;;;5060288;28;20029;-76
2021/03/05 10:27:23;;;;;;;8.05;5.07;;;;;;;;;;5060054;28;20717;-76
2021/03/05 10:29:52;;;;;;;7.75;4.75;;;;;;;;;;5061647;28;20047;-78
2021/03/05 10:32:17;;;;;;;7.10;5.20;;;;;;;;;;5033047;28;20052;-77
2021/03/05 10:34:43;;;;;;;8.00;4.20;;;;;;;;;;5048676;28;20021;-77
2021/03/05 10:37:08;;;;;;;6.47;4.63;;;;;;;;;;5061519;28;20049;-80
2021/03/05 10:39:34;;;;;;;7.32;4.90;;;;;;;;;;5048590;28;20090;-84
2021/03/05 10:42:00;;;;;;;7.53;4.60;;;;;;;;;;5057349;28;20413;-83
2021/03/05 10:44:26;;;;;;;8.10;4.47;;;;;;;;;;5052946;28;20025;-83
2021/03/05 10:46:51;;;;;;;6.78;4.40;;;;;;;;;;5058222;28;20025;-77
2021/03/05 10:49:17;;;;;;;8.47;4.87;;;;;;;;;;5048029;28;20043;-76
2021/03/05 10:51:42;;;;;;;6.88;4.35;;;;;;;;;;5041480;28;20289;-76
2021/03/05 10:54:07;;;;;;;7.15;4.47;;;;;;;;;;5048819;28;20032;-75
2021/03/05 10:56:33;;;;;;;8.18;4.18;;;;;;;;;;5037843;28;20113;-76
2021/03/05 10:58:59;;;;;;;9.10;4.80;;;;;;;;;;5048677;28;20120;-79
2021/03/05 11:01:24;;;;;;;6.95;4.35;;;;;;;;;;5041441;28;20120;-77
2021/03/05 11:03:49;;;;;;;10.97;4.77;;;;;;;;;;5049079;28;20025;-77
2021/03/05 11:06:15;;;;;;;10.25;4.57;;;;;;;;;;5038082;28;20704;-76
2021/03/05 11:08:40;;;;;;;9.35;4.65;;;;;;;;;;5049218;28;20036;-76
2021/03/05 11:11:06;;;;;;;9.77;4.60;;;;;;;;;;5049251;28;20055;-79
2021/03/05 11:13:31;;;;;;;6.87;4.43;;;;;;;;;;5046918;28;20767;-78
2021/03/05 11:15:56;;;;;;;9.02;4.55;;;;;;;;;;5045683;28;20279;-78
2021/03/05 11:18:22;;;;;;;10.77;4.55;;;;;;;;;;5047246;28;20095;-77
2021/03/05 11:20:47;;;;;;;9.73;4.23;;;;;;;;;;5045610;28;20521;-76
2021/03/05 11:23:12;;;;;;;7.75;4.30;;;;;;;;;;5044318;28;20356;-77
2021/03/05 11:25:37;;;;;;;9.90;4.40;;;;;;;;;;5043169;28;20086;-77
2021/03/05 11:28:04;;;;;;;6.00;4.03;;;;;;;;;;5043508;28;20260;-78
2021/03/05 11:30:30;;;;;;;8.25;4.47;;;;;;;;;;5041851;28;20280;-75
2021/03/05 11:32:55;;;;;;;7.22;4.15;;;;;;;;;;5048130;28;20096;-73
2021/03/05 11:35:20;;;;;;;8.63;4.40;;;;;;;;;;5043914;28;20025;-77
2021/03/05 11:37:46;;;;;;;6.50;4.50;;;;;;;;;;5049059;28;20822;-81
2021/03/05 11:40:11;;;;;;;7.73;4.30;;;;;;;;;;5042471;28;20017;-75
2021/03/05 11:42:37;;;;;;;7.05;4.53;;;;;;;;;;5049629;28;20281;-79
2021/03/05 11:45:05;;;;;;;6.35;3.72;;;;;;;;;;5044955;28;20078;-79
2021/03/05 11:47:31;;;;;;;5.95;3.72;;;;;;;;;;5046850;28;20013;-80
2021/03/05 11:49:56;;;;;;;8.15;4.20;;;;;;;;;;5046971;28;20048;-78
2021/03/05 11:52:21;;;;;;;5.87;3.80;;;;;;;;;;5065083;28;20468;-79
2021/03/05 11:54:46;;;;;;;4.78;3.53;;;;;;;;;;5050720;28;20276;-79
2021/03/05 11:57:12;;;;;;;6.20;3.90;;;;;;;;;;5047986;28;20017;-78
2021/03/05 11:59:37;;;;;;;5.60;3.17;;;;;;;;;;5050062;28;20459;-79
2021/03/05 12:02:02;;;;;;;6.13;4.00;;;;;;;;;;5048406;28;20121;-79
2021/03/05 12:04:28;;;;;;;5.82;3.40;;;;;;;;;;5051865;28;20268;-77
2021/03/05 12:06:53;;;;;;;5.63;3.58;;;;;;;;;;5044613;28;20450;-79
2021/03/05 12:09:18;;;;;;;5.67;3.47;;;;;;;;;;5067504;28;20029;-77
2021/03/05 12:11:44;;;;;;;6.13;3.60;;;;;;;;;;5040001;28;20283;-78
2021/03/05 12:14:09;;;;;;;5.78;3.63;;;;;;;;;;5052021;28;20402;-76
2021/03/05 12:16:34;;;;;;;5.90;3.42;;;;;;;;;;5050137;28;20116;-83
2021/03/05 12:18:59;;;;;;;5.43;3.53;;;;;;;;;;5071136;28;20031;-83
2021/03/05 12:21:25;;;;;;;5.45;3.45;;;;;;;;;;5051344;28;20286;-83
2021/03/05 12:23:50;;;;;;;5.90;3.70;;;;;;;;;;5066994;28;20122;-82
2021/03/05 12:26:15;;;;;;;6.75;3.30;;;;;;;;;;5048846;28;20263;-75
2021/03/05 12:28:40;;;;;;;5.37;3.27;;;;;;;;;;5049503;28;20017;-82
2021/03/05 12:31:06;;;;;;;4.57;3.00;;;;;;;;;;5052108;28;20676;-83
2021/03/05 12:33:31;;;;;;;5.73;3.30;;;;;;;;;;5066374;28;20278;-82
2021/03/05 12:35:56;;;;;;;5.40;3.40;;;;;;;;;;5048002;28;20263;-83
2021/03/05 12:38:22;;;;;;;5.70;3.30;;;;;;;;;;5056087;28;20268;-87
2021/03/05 12:40:47;;;;;;;5.65;3.40;;;;;;;;;;5056565;28;20058;-82
2021/03/05 12:43:12;;;;;;;5.30;3.78;;;;;;;;;;5047248;28;20037;-83
2021/03/05 12:45:37;;;;;;;5.05;3.35;;;;;;;;;;5039801;28;20116;-81
2021/03/05 12:48:06;;;;;;;6.07;3.45;;;;;;;;;;5048426;28;20486;-83
2021/03/05 12:50:32;;;;;;;4.95;2.95;;;;;;;;;;5041405;28;20033;-81
2021/03/05 12:52:57;;;;;;;4.33;3.33;;;;;;;;;;5066643;28;20025;-82
2021/03/05 12:55:22;;;;;;;5.18;3.25;;;;;;;;;;5047757;28;20366;-83
2021/03/05 12:57:48;;;;;;;4.38;2.95;;;;;;;;;;5068601;28;20024;-82
2021/03/05 13:00:15;;;;;;;4.20;3.20;;;;;;;;;;5047714;28;20049;-81
2021/03/05 13:02:40;;;;;;;5.13;3.03;;;;;;;;;;5066805;28;20287;-82
2021/03/05 13:05:06;;;;;;;4.30;3.13;;;;;;;;;;5044557;28;20556;-83
2021/03/05 13:07:31;;;;;;;5.25;3.10;;;;;;;;;;5050997;28;20263;-82
2021/03/05 13:09:56;;;;;;;5.03;3.20;;;;;;;;;;5066956;28;20017;-82
2021/03/05 13:12:21;;;;;;;4.17;2.70;;;;;;;;;;5046987;28;20021;-83
2021/03/05 13:14:47;;;;;;;5.35;3.20;;;;;;;;;;5039914;28;20341;-83
2021/03/05 13:17:12;;;;;;;4.90;3.17;;;;;;;;;;5068960;28;20074;-83
2021/03/05 13:19:37;;;;;;;4.07;2.90;;;;;;;;;;5049808;28;20210;-84
2021/03/05 13:22:03;;;;;;;4.67;2.97;;;;;;;;;;5066207;28;20287;-84
2021/03/05 13:24:28;;;;;;;5.20;3.13;;;;;;;;;;5051194;28;20386;-84
2021/03/05 13:26:54;;;;;;;4.50;3.00;;;;;;;;;;5061142;28;20041;-84
2021/03/05 13:29:19;;;;;;;4.20;2.75;;;;;;;;;;5047604;28;20025;-83
2021/03/05 13:31:48;;;;;;;4.70;2.97;;;;;;;;;;5033265;28;20512;-83
2021/03/05 13:34:13;;;;;;;19.92;4.43;;;;;;;;;;5063354;28;20068;-82
2021/03/05 13:36:38;;;;;;;6.25;2.50;;;;;;;;;;5061168;28;20117;-74
2021/03/05 13:39:04;;;;;;;3.95;2.28;;;;;;;;;;5047531;28;20009;-72
2021/03/05 13:41:29;;;;;;;6.35;2.45;;;;;;;;;;5047235;28;20029;-78
2021/03/05 13:43:54;;;;;;;4.82;2.70;;;;;;;;;;5056549;28;20048;-82
2021/03/05 13:46:20;;;;;;;7.03;2.60;;;;;;;;;;5059316;28;20017;-82
2021/03/05 13:48:45;;;;;;;5.22;2.95;;;;;;;;;;5063063;28;20017;-82
2021/03/05 13:51:11;;;;;;;6.32;2.67;;;;;;;;;;5051544;28;20029;-80
2021/03/05 13:53:36;;;;;;;4.05;2.50;;;;;;;;;;5065432;28;20025;-77
2021/03/05 13:56:03;;;;;;;4.25;2.28;;;;;;;;;;5041267;28;20044;-81
2021/03/05 13:58:28;;;;;;;6.38;2.30;;;;;;;;;;5044470;28;20124;-74
2021/03/05 14:00:54;;;;;;;3.90;2.55;;;;;;;;;;5047151;28;20136;-77
2021/03/05 14:03:19;;;;;;;4.40;2.23;;;;;;;;;;5046511;28;20116;-74
2021/03/05 14:05:44;;;;;;;5.32;2.35;;;;;;;;;;5047101;28;20256;-74
2021/03/05 14:08:10;;;;;;;5.82;2.70;;;;;;;;;;5049608;28;20540;-81
2021/03/05 14:10:35;;;;;;;4.97;2.63;;;;;;;;;;5045551;28;20018;-77
2021/03/05 14:13:00;;;;;;;5.73;2.20;;;;;;;;;;5050240;28;20270;-79
2021/03/05 14:15:26;;;;;;;8.73;2.50;;;;;;;;;;5040542;28;20810;-77
2021/03/05 14:17:51;;;;;;;6.35;2.60;;;;;;;;;;5038521;28;20021;-76
2021/03/05 14:20:16;;;;;;;6.80;2.47;;;;;;;;;;5045088;28;20031;-77
2021/03/05 14:22:42;;;;;;;5.93;2.72;;;;;;;;;;5047817;28;20275;-74
2021/03/05 14:25:07;;;;;;;4.55;2.10;;;;;;;;;;5044086;28;20017;-76
2021/03/05 14:27:33;;;;;;;5.28;2.40;;;;;;;;;;5047085;28;20020;-78
2021/03/05 14:29:58;;;;;;;6.78;2.28;;;;;;;;;;5045214;28;20553;-75
2021/03/05 14:32:23;;;;;;;3.53;2.28;;;;;;;;;;5046785;28;20033;-76
2021/03/05 14:34:49;;;;;;;5.22;2.42;;;;;;;;;;5042998;28;20033;-75
2021/03/05 14:37:14;;;;;;;4.07;2.25;;;;;;;;;;5048858;28;20021;-76
2021/03/05 14:39:39;;;;;;;4.60;2.00;;;;;;;;;;5062566;28;20107;-74
2021/03/05 14:42:05;;;;;;;5.60;2.37;;;;;;;;;;5055144;28;20191;-74
2021/03/05 14:44:31;;;;;;;4.38;2.28;;;;;;;;;;5052760;28;20279;-78